sensor_id;sensor_type;location;lat;lon;timestamp;temperature;humidity
10030;DHT22;5055;52.054;8.524;2023-02-15T00:02:08;-0.20;97.00
10030;DHT22;5055;52.054;8.524;2023-02-15T00:04:36;-0.20;97.00
10030;DHT22;5055;52.054;8.524;2023-02-15T00:07:19;-0.30;97.00
10030;DHT22;5055;52.054;8.524;2023-02-15T00:09:47;-0.20;97.00
10030;DHT22;5055;52.054;8.524;2023-02-15T00:12:16;-0.20;97.00
10030;DHT22;5055;52.054;8.524;2023-02-15T00:14:44;-0.20;97.00
10030;DHT22;5055;52.054;8.524;2023-02-15T00:17:12;-0.20;97.00
10030;DHT22;5055;52.054;8.524;2023-02-15T00:19:40;-0.20;97.00
10030;DHT22;5055;52.054;8.524;2023-02-15T00:22:08;-0.20;97.00
10030;DHT22;5055;52.054;8.524;2023-02-15T00:24:38;-0.30;97.00
10030;DHT22;5055;52.054;8.524;2023-02-15T00:27:06;-0.30;97.00
10030;DHT22;5055;52.054;8.524;2023-02-15T00:29:35;-0.30;97.00
10030;DHT22;5055;52.054;8.524;2023-02-15T00:32:04;-0.30;97.00
10030;DHT22;5055;52.054;8.524;2023-02-15T00:34:33;-0.30;97.00
10030;DHT22;5055;52.054;8.524;2023-02-15T00:37:01;-0.30;97.00
10030;DHT22;5055;52.054;8.524;2023-02-15T00:39:29;-0.30;97.00
10030;DHT22;5055;52.054;8.524;2023-02-15T00:41:58;-0.30;97.00
10030;DHT22;5055;52.054;8.524;2023-02-15T00:44:27;-0.30;97.00
10030;DHT22;5055;52.054;8.524;2023-02-15T00:46:55;-0.30;97.00
10030;DHT22;5055;52.054;8.524;2023-02-15T00:49:23;-0.30;97.00
10030;DHT22;5055;52.054;8.524;2023-02-15T00:51:51;-0.40;97.00
10030;DHT22;5055;52.054;8.524;2023-02-15T00:54:20;-0.40;97.00
10030;DHT22;5055;52.054;8.524;2023-02-15T00:56:48;-0.40;97.00
10030;DHT22;5055;52.054;8.524;2023-02-15T00:59:17;-0.40;97.00
10030;DHT22;5055;52.054;8.524;2023-02-15T01:01:45;-0.50;97.00
10030;DHT22;5055;52.054;8.524;2023-02-15T01:04:14;-0.50;97.00
10030;DHT22;5055;52.054;8.524;2023-02-15T01:06:42;-0.50;97.00
10030;DHT22;5055;52.054;8.524;2023-02-15T01:09:10;-0.50;97.00
10030;DHT22;5055;52.054;8.524;2023-02-15T01:11:40;-0.50;97.00
10030;DHT22;5055;52.054;8.524;2023-02-15T01:14:08;-0.60;97.00
10030;DHT22;5055;52.054;8.524;2023-02-15T01:16:37;-0.60;97.00
10030;DHT22;5055;52.054;8.524;2023-02-15T01:19:06;-0.70;97.00
10030;DHT22;5055;52.054;8.524;2023-02-15T01:21:34;-0.70;97.00
10030;DHT22;5055;52.054;8.524;2023-02-15T01:24:02;-0.70;97.00
10030;DHT22;5055;52.054;8.524;2023-02-15T01:26:30;-0.70;97.00
10030;DHT22;5055;52.054;8.524;2023-02-15T01:28:58;-0.70;97.00
10030;DHT22;5055;52.054;8.524;2023-02-15T01:31:26;-0.80;97.00
10030;DHT22;5055;52.054;8.524;2023-02-15T01:33:56;-0.80;97.00
10030;DHT22;5055;52.054;8.524;2023-02-15T01:36:24;-0.80;97.00
10030;DHT22;5055;52.054;8.524;2023-02-15T01:38:52;-0.90;97.00
10030;DHT22;5055;52.054;8.524;2023-02-15T01:41:21;-0.80;97.00
10030;DHT22;5055;52.054;8.524;2023-02-15T01:43:52;-0.80;97.00
10030;DHT22;5055;52.054;8.524;2023-02-15T01:46:26;-0.80;97.00
10030;DHT22;5055;52.054;8.524;2023-02-15T01:49:00;-0.80;97.00
10030;DHT22;5055;52.054;8.524;2023-02-15T01:51:31;-0.80;97.00
10030;DHT22;5055;52.054;8.524;2023-02-15T01:54:04;-0.80;97.00
10030;DHT22;5055;52.054;8.524;2023-02-15T01:56:36;-0.80;97.00
10030;DHT22;5055;52.054;8.524;2023-02-15T01:59:08;-0.80;97.00
10030;DHT22;5055;52.054;8.524;2023-02-15T02:01:37;-0.80;97.00
10030;DHT22;5055;52.054;8.524;2023-02-15T02:04:11;-0.80;97.00
10030;DHT22;5055;52.054;8.524;2023-02-15T02:06:41;-0.80;97.00
10030;DHT22;5055;52.054;8.524;2023-02-15T02:09:09;-0.80;97.00
10030;DHT22;5055;52.054;8.524;2023-02-15T02:11:38;-0.80;97.00
10030;DHT22;5055;52.054;8.524;2023-02-15T02:14:08;-0.80;97.00
10030;DHT22;5055;52.054;8.524;2023-02-15T02:16:44;-0.80;97.00
10030;DHT22;5055;52.054;8.524;2023-02-15T02:22:49;-0.80;97.00
10030;DHT22;5055;52.054;8.524;2023-02-15T02:28:41;-0.80;97.00
10030;DHT22;5055;52.054;8.524;2023-02-15T02:31:37;-0.80;97.00
10030;DHT22;5055;52.054;8.524;2023-02-15T02:34:09;-0.80;97.00
10030;DHT22;5055;52.054;8.524;2023-02-15T02:36:44;-0.80;97.00
10030;DHT22;5055;52.054;8.524;2023-02-15T02:39:23;-0.80;97.00
10030;DHT22;5055;52.054;8.524;2023-02-15T02:41:58;-0.90;97.00
10030;DHT22;5055;52.054;8.524;2023-02-15T02:44:34;-0.90;97.00
10030;DHT22;5055;52.054;8.524;2023-02-15T02:47:08;-0.90;97.00
10030;DHT22;5055;52.054;8.524;2023-02-15T02:49:40;-0.80;97.00
10030;DHT22;5055;52.054;8.524;2023-02-15T02:52:36;-0.80;97.00
10030;DHT22;5055;52.054;8.524;2023-02-15T02:55:08;-0.90;97.00
10030;DHT22;5055;52.054;8.524;2023-02-15T02:57:41;-0.90;97.00
10030;DHT22;5055;52.054;8.524;2023-02-15T03:00:12;-0.90;97.00
10030;DHT22;5055;52.054;8.524;2023-02-15T03:02:44;-0.80;97.00
10030;DHT22;5055;52.054;8.524;2023-02-15T03:05:21;-0.80;97.00
10030;DHT22;5055;52.054;8.524;2023-02-15T03:07:51;-0.80;97.00
10030;DHT22;5055;52.054;8.524;2023-02-15T03:10:22;-0.90;97.00
10030;DHT22;5055;52.054;8.524;2023-02-15T03:12:52;-0.80;97.00
10030;DHT22;5055;52.054;8.524;2023-02-15T03:15:23;-0.80;97.00
10030;DHT22;5055;52.054;8.524;2023-02-15T03:17:55;-0.90;97.00
10030;DHT22;5055;52.054;8.524;2023-02-15T03:20:28;-0.80;97.00
10030;DHT22;5055;52.054;8.524;2023-02-15T03:22:59;-0.80;97.00
10030;DHT22;5055;52.054;8.524;2023-02-15T03:25:32;-0.90;97.00
10030;DHT22;5055;52.054;8.524;2023-02-15T03:28:04;-0.90;97.00
10030;DHT22;5055;52.054;8.524;2023-02-15T03:30:35;-0.90;97.00
10030;DHT22;5055;52.054;8.524;2023-02-15T03:33:05;-0.80;97.00
10030;DHT22;5055;52.054;8.524;2023-02-15T03:35:39;-0.80;97.00
10030;DHT22;5055;52.054;8.524;2023-02-15T03:38:17;-0.80;97.00
10030;DHT22;5055;52.054;8.524;2023-02-15T03:40:47;-0.90;97.00
10030;DHT22;5055;52.054;8.524;2023-02-15T03:43:40;-0.90;97.00
10030;DHT22;5055;52.054;8.524;2023-02-15T03:46:15;-1.00;97.00
10030;DHT22;5055;52.054;8.524;2023-02-15T03:48:48;-1.10;97.00
10030;DHT22;5055;52.054;8.524;2023-02-15T03:51:22;-1.00;97.00
10030;DHT22;5055;52.054;8.524;2023-02-15T03:54:03;-0.90;97.00
10030;DHT22;5055;52.054;8.524;2023-02-15T03:56:34;-0.90;97.00
10030;DHT22;5055;52.054;8.524;2023-02-15T03:59:03;-0.80;97.00
10030;DHT22;5055;52.054;8.524;2023-02-15T04:01:58;-0.80;97.00
10030;DHT22;5055;52.054;8.524;2023-02-15T04:04:34;-0.80;97.00
10030;DHT22;5055;52.054;8.524;2023-02-15T04:07:07;-0.80;97.00
10030;DHT22;5055;52.054;8.524;2023-02-15T04:09:36;-0.80;97.00
10030;DHT22;5055;52.054;8.524;2023-02-15T04:12:22;-0.80;97.00
10030;DHT22;5055;52.054;8.524;2023-02-15T04:14:50;-0.80;97.00
10030;DHT22;5055;52.054;8.524;2023-02-15T04:17:36;-0.80;97.00
10030;DHT22;5055;52.054;8.524;2023-02-15T04:20:05;-0.80;97.00
10030;DHT22;5055;52.054;8.524;2023-02-15T04:22:52;-0.90;97.00
10030;DHT22;5055;52.054;8.524;2023-02-15T04:25:38;-0.90;97.00
10030;DHT22;5055;52.054;8.524;2023-02-15T04:28:06;-0.90;97.00
10030;DHT22;5055;52.054;8.524;2023-02-15T04:30:34;-0.80;97.00
10030;DHT22;5055;52.054;8.524;2023-02-15T04:33:03;-0.90;97.00
10030;DHT22;5055;52.054;8.524;2023-02-15T04:35:31;-0.90;97.00
10030;DHT22;5055;52.054;8.524;2023-02-15T04:38:01;-0.90;97.00
10030;DHT22;5055;52.054;8.524;2023-02-15T04:40:29;-0.90;97.00
10030;DHT22;5055;52.054;8.524;2023-02-15T04:42:58;-0.90;97.00
10030;DHT22;5055;52.054;8.524;2023-02-15T04:45:26;-0.90;97.00
10030;DHT22;5055;52.054;8.524;2023-02-15T04:47:55;-0.90;97.00
10030;DHT22;5055;52.054;8.524;2023-02-15T04:50:23;-0.90;97.00
10030;DHT22;5055;52.054;8.524;2023-02-15T04:52:51;-0.90;97.00
10030;DHT22;5055;52.054;8.524;2023-02-15T04:55:20;-0.90;97.00
10030;DHT22;5055;52.054;8.524;2023-02-15T04:57:48;-0.80;97.00
10030;DHT22;5055;52.054;8.524;2023-02-15T05:00:18;-0.80;97.00
10030;DHT22;5055;52.054;8.524;2023-02-15T05:02:46;-0.90;97.00
10030;DHT22;5055;52.054;8.524;2023-02-15T05:05:14;-0.90;97.00
10030;DHT22;5055;52.054;8.524;2023-02-15T05:07:43;-0.90;97.00
10030;DHT22;5055;52.054;8.524;2023-02-15T05:10:11;-0.90;97.00
10030;DHT22;5055;52.054;8.524;2023-02-15T05:12:40;-1.00;97.00
10030;DHT22;5055;52.054;8.524;2023-02-15T05:15:09;-0.90;97.00
10030;DHT22;5055;52.054;8.524;2023-02-15T05:17:37;-1.00;97.00
10030;DHT22;5055;52.054;8.524;2023-02-15T05:20:06;-1.00;97.00
10030;DHT22;5055;52.054;8.524;2023-02-15T05:22:34;-1.10;97.00
10030;DHT22;5055;52.054;8.524;2023-02-15T05:25:02;-1.20;97.00
10030;DHT22;5055;52.054;8.524;2023-02-15T05:27:49;-1.20;97.00
10030;DHT22;5055;52.054;8.524;2023-02-15T05:30:35;-1.20;97.00
10030;DHT22;5055;52.054;8.524;2023-02-15T05:33:03;-1.20;97.00
10030;DHT22;5055;52.054;8.524;2023-02-15T05:35:32;-1.20;97.00
10030;DHT22;5055;52.054;8.524;2023-02-15T05:38:00;-1.20;97.00
10030;DHT22;5055;52.054;8.524;2023-02-15T05:40:28;-1.30;97.00
10030;DHT22;5055;52.054;8.524;2023-02-15T05:42:58;-1.30;97.00
10030;DHT22;5055;52.054;8.524;2023-02-15T05:45:26;-1.30;97.00
10030;DHT22;5055;52.054;8.524;2023-02-15T05:47:54;-1.40;97.00
10030;DHT22;5055;52.054;8.524;2023-02-15T05:50:24;-1.40;97.00
10030;DHT22;5055;52.054;8.524;2023-02-15T05:52:53;-1.40;97.00
10030;DHT22;5055;52.054;8.524;2023-02-15T05:55:21;-1.40;97.00
10030;DHT22;5055;52.054;8.524;2023-02-15T05:57:49;-1.40;97.00
10030;DHT22;5055;52.054;8.524;2023-02-15T06:00:19;-1.30;97.00
10030;DHT22;5055;52.054;8.524;2023-02-15T06:02:47;-1.30;97.00
10030;DHT22;5055;52.054;8.524;2023-02-15T06:05:15;-1.20;97.00
10030;DHT22;5055;52.054;8.524;2023-02-15T06:07:44;-1.30;97.00
10030;DHT22;5055;52.054;8.524;2023-02-15T06:10:12;-1.20;97.00
10030;DHT22;5055;52.054;8.524;2023-02-15T06:12:40;-1.20;97.00
10030;DHT22;5055;52.054;8.524;2023-02-15T06:15:09;-1.10;97.00
10030;DHT22;5055;52.054;8.524;2023-02-15T06:17:41;-1.00;97.00
10030;DHT22;5055;52.054;8.524;2023-02-15T06:20:10;-1.00;97.00
10030;DHT22;5055;52.054;8.524;2023-02-15T06:22:39;-1.00;97.00
10030;DHT22;5055;52.054;8.524;2023-02-15T06:25:07;-0.90;97.00
10030;DHT22;5055;52.054;8.524;2023-02-15T06:27:37;-0.90;97.00
10030;DHT22;5055;52.054;8.524;2023-02-15T06:30:06;-0.80;97.00
10030;DHT22;5055;52.054;8.524;2023-02-15T06:32:35;-0.80;97.00
10030;DHT22;5055;52.054;8.524;2023-02-15T06:35:05;-0.80;97.00
10030;DHT22;5055;52.054;8.524;2023-02-15T06:37:33;-0.70;97.00
10030;DHT22;5055;52.054;8.524;2023-02-15T06:40:01;-0.70;97.00
10030;DHT22;5055;52.054;8.524;2023-02-15T06:42:31;-0.70;97.00
10030;DHT22;5055;52.054;8.524;2023-02-15T06:44:59;-0.60;97.00
10030;DHT22;5055;52.054;8.524;2023-02-15T06:47:27;-0.60;97.00
10030;DHT22;5055;52.054;8.524;2023-02-15T06:49:55;-0.60;97.00
10030;DHT22;5055;52.054;8.524;2023-02-15T06:52:25;-0.60;97.00
10030;DHT22;5055;52.054;8.524;2023-02-15T06:54:53;-0.60;97.00
10030;DHT22;5055;52.054;8.524;2023-02-15T06:57:21;-0.50;97.00
10030;DHT22;5055;52.054;8.524;2023-02-15T06:59:50;-0.50;97.00
10030;DHT22;5055;52.054;8.524;2023-02-15T07:02:19;-0.50;97.00
10030;DHT22;5055;52.054;8.524;2023-02-15T07:04:47;-0.50;97.00
10030;DHT22;5055;52.054;8.524;2023-02-15T07:07:15;-0.50;97.00
10030;DHT22;5055;52.054;8.524;2023-02-15T07:09:45;-0.50;97.00
10030;DHT22;5055;52.054;8.524;2023-02-15T07:12:13;-0.50;97.00
10030;DHT22;5055;52.054;8.524;2023-02-15T07:14:59;-0.50;97.00
10030;DHT22;5055;52.054;8.524;2023-02-15T07:17:27;-0.40;97.00
10030;DHT22;5055;52.054;8.524;2023-02-15T07:20:04;-0.40;97.00
10030;DHT22;5055;52.054;8.524;2023-02-15T07:22:34;-0.40;97.00
10030;DHT22;5055;52.054;8.524;2023-02-15T07:25:05;-0.40;97.00
10030;DHT22;5055;52.054;8.524;2023-02-15T07:27:34;-0.30;97.00
10030;DHT22;5055;52.054;8.524;2023-02-15T07:30:02;-0.30;97.00
10030;DHT22;5055;52.054;8.524;2023-02-15T07:32:32;-0.30;97.00
10030;DHT22;5055;52.054;8.524;2023-02-15T07:35:01;-0.20;97.00
10030;DHT22;5055;52.054;8.524;2023-02-15T07:37:29;-0.20;97.00
10030;DHT22;5055;52.054;8.524;2023-02-15T07:39:57;-0.20;97.00
10030;DHT22;5055;52.054;8.524;2023-02-15T07:42:26;-0.10;97.00
10030;DHT22;5055;52.054;8.524;2023-02-15T07:44:54;-0.10;97.00
10030;DHT22;5055;52.054;8.524;2023-02-15T07:47:23;0.10;97.00
10030;DHT22;5055;52.054;8.524;2023-02-15T07:49:51;0.30;97.00
10030;DHT22;5055;52.054;8.524;2023-02-15T07:52:19;0.40;97.00
10030;DHT22;5055;52.054;8.524;2023-02-15T07:54:47;0.60;97.00
10030;DHT22;5055;52.054;8.524;2023-02-15T07:57:15;0.70;97.00
10030;DHT22;5055;52.054;8.524;2023-02-15T07:59:44;1.00;97.00
10030;DHT22;5055;52.054;8.524;2023-02-15T08:02:12;1.20;97.00
10030;DHT22;5055;52.054;8.524;2023-02-15T08:04:44;1.30;97.00
10030;DHT22;5055;52.054;8.524;2023-02-15T08:07:12;1.30;97.00
10030;DHT22;5055;52.054;8.524;2023-02-15T08:09:41;1.50;97.00
10030;DHT22;5055;52.054;8.524;2023-02-15T08:12:09;1.50;97.00
10030;DHT22;5055;52.054;8.524;2023-02-15T08:14:37;1.60;97.00
10030;DHT22;5055;52.054;8.524;2023-02-15T08:17:06;1.70;97.00
10030;DHT22;5055;52.054;8.524;2023-02-15T08:19:35;1.80;97.00
10030;DHT22;5055;52.054;8.524;2023-02-15T08:22:04;1.90;97.00
10030;DHT22;5055;52.054;8.524;2023-02-15T08:24:34;2.10;97.00
10030;DHT22;5055;52.054;8.524;2023-02-15T08:27:04;2.30;97.00
10030;DHT22;5055;52.054;8.524;2023-02-15T08:29:33;2.50;97.00
10030;DHT22;5055;52.054;8.524;2023-02-15T08:32:04;2.60;97.00
10030;DHT22;5055;52.054;8.524;2023-02-15T08:34:36;2.90;97.00
10030;DHT22;5055;52.054;8.524;2023-02-15T08:37:04;3.20;97.00
10030;DHT22;5055;52.054;8.524;2023-02-15T08:39:33;3.10;97.00
10030;DHT22;5055;52.054;8.524;2023-02-15T08:42:01;3.50;97.00
10030;DHT22;5055;52.054;8.524;2023-02-15T08:44:30;3.60;97.00
10030;DHT22;5055;52.054;8.524;2023-02-15T08:46:58;3.70;97.00
10030;DHT22;5055;52.054;8.524;2023-02-15T08:49:30;3.90;97.00
10030;DHT22;5055;52.054;8.524;2023-02-15T08:52:00;4.20;97.00
10030;DHT22;5055;52.054;8.524;2023-02-15T08:54:28;4.20;97.00
10030;DHT22;5055;52.054;8.524;2023-02-15T08:56:56;4.50;97.00
10030;DHT22;5055;52.054;8.524;2023-02-15T08:59:24;4.80;97.00
10030;DHT22;5055;52.054;8.524;2023-02-15T09:01:54;5.00;97.00
10030;DHT22;5055;52.054;8.524;2023-02-15T09:04:22;5.10;97.00
10030;DHT22;5055;52.054;8.524;2023-02-15T09:06:51;5.20;97.00
10030;DHT22;5055;52.054;8.524;2023-02-15T09:09:21;4.90;97.00
10030;DHT22;5055;52.054;8.524;2023-02-15T09:11:50;4.90;97.00
10030;DHT22;5055;52.054;8.524;2023-02-15T09:14:25;4.90;97.00
10030;DHT22;5055;52.054;8.524;2023-02-15T09:16:54;5.00;97.00
10030;DHT22;5055;52.054;8.524;2023-02-15T09:19:23;5.10;97.00
10030;DHT22;5055;52.054;8.524;2023-02-15T09:21:51;5.40;97.00
10030;DHT22;5055;52.054;8.524;2023-02-15T09:24:21;5.40;97.00
10030;DHT22;5055;52.054;8.524;2023-02-15T09:26:49;5.40;97.00
10030;DHT22;5055;52.054;8.524;2023-02-15T09:29:18;5.50;97.00
10030;DHT22;5055;52.054;8.524;2023-02-15T09:31:48;5.40;97.00
10030;DHT22;5055;52.054;8.524;2023-02-15T09:34:18;5.80;97.00
10030;DHT22;5055;52.054;8.524;2023-02-15T09:36:47;5.80;97.00
10030;DHT22;5055;52.054;8.524;2023-02-15T09:39:16;5.60;97.00
10030;DHT22;5055;52.054;8.524;2023-02-15T09:45:02;6.00;97.00
10030;DHT22;5055;52.054;8.524;2023-02-15T09:50:41;6.30;97.00
10030;DHT22;5055;52.054;8.524;2023-02-15T09:53:24;6.50;97.00
10030;DHT22;5055;52.054;8.524;2023-02-15T09:56:00;6.80;97.00
10030;DHT22;5055;52.054;8.524;2023-02-15T09:58:40;7.00;97.00
10030;DHT22;5055;52.054;8.524;2023-02-15T10:01:16;7.10;97.00
10030;DHT22;5055;52.054;8.524;2023-02-15T10:03:58;7.50;97.00
10030;DHT22;5055;52.054;8.524;2023-02-15T10:06:38;7.30;97.00
10030;DHT22;5055;52.054;8.524;2023-02-15T10:09:37;7.40;97.00
10030;DHT22;5055;52.054;8.524;2023-02-15T10:15:20;7.50;97.00
10030;DHT22;5055;52.054;8.524;2023-02-15T10:18:10;7.50;97.00
10030;DHT22;5055;52.054;8.524;2023-02-15T10:20:52;7.80;97.00
10030;DHT22;5055;52.054;8.524;2023-02-15T10:23:51;7.90;97.00
10030;DHT22;5055;52.054;8.524;2023-02-15T10:26:30;8.10;97.00
10030;DHT22;5055;52.054;8.524;2023-02-15T10:29:03;8.40;97.00
10030;DHT22;5055;52.054;8.524;2023-02-15T10:31:41;8.60;97.00
10030;DHT22;5055;52.054;8.524;2023-02-15T10:34:17;8.60;97.00
10030;DHT22;5055;52.054;8.524;2023-02-15T10:37:04;9.00;97.00
10030;DHT22;5055;52.054;8.524;2023-02-15T10:39:42;9.50;97.00
10030;DHT22;5055;52.054;8.524;2023-02-15T10:42:23;9.80;97.00
10030;DHT22;5055;52.054;8.524;2023-02-15T10:45:09;9.70;97.00
10030;DHT22;5055;52.054;8.524;2023-02-15T10:48:06;9.60;97.00
10030;DHT22;5055;52.054;8.524;2023-02-15T10:50:46;9.60;97.00
10030;DHT22;5055;52.054;8.524;2023-02-15T10:53:30;9.40;97.00
10030;DHT22;5055;52.054;8.524;2023-02-15T10:56:10;9.70;97.00
10030;DHT22;5055;52.054;8.524;2023-02-15T10:58:53;9.70;97.00
10030;DHT22;5055;52.054;8.524;2023-02-15T11:01:27;9.50;97.00
10030;DHT22;5055;52.054;8.524;2023-02-15T11:04:34;9.70;97.00
10030;DHT22;5055;52.054;8.524;2023-02-15T11:07:16;9.50;97.00
10030;DHT22;5055;52.054;8.524;2023-02-15T11:09:48;9.70;97.00
10030;DHT22;5055;52.054;8.524;2023-02-15T11:12:20;9.70;97.00
10030;DHT22;5055;52.054;8.524;2023-02-15T11:14:52;9.50;97.00
10030;DHT22;5055;52.054;8.524;2023-02-15T11:17:24;9.50;97.00
10030;DHT22;5055;52.054;8.524;2023-02-15T11:20:02;9.40;97.00
10030;DHT22;5055;52.054;8.524;2023-02-15T11:22:33;9.40;97.00
10030;DHT22;5055;52.054;8.524;2023-02-15T11:25:04;9.60;97.00
10030;DHT22;5055;52.054;8.524;2023-02-15T11:27:43;9.70;97.00
10030;DHT22;5055;52.054;8.524;2023-02-15T11:30:17;9.80;97.00
10030;DHT22;5055;52.054;8.524;2023-02-15T11:32:48;9.90;97.00
10030;DHT22;5055;52.054;8.524;2023-02-15T11:35:23;9.80;97.00
10030;DHT22;5055;52.054;8.524;2023-02-15T11:37:57;9.90;97.00
10030;DHT22;5055;52.054;8.524;2023-02-15T11:40:28;9.80;97.00
10030;DHT22;5055;52.054;8.524;2023-02-15T11:43:02;9.60;97.00
10030;DHT22;5055;52.054;8.524;2023-02-15T11:45:32;9.60;97.00
10030;DHT22;5055;52.054;8.524;2023-02-15T11:48:04;9.60;97.00
10030;DHT22;5055;52.054;8.524;2023-02-15T11:50:38;9.60;97.00
10030;DHT22;5055;52.054;8.524;2023-02-15T11:53:12;9.50;97.00
10030;DHT22;5055;52.054;8.524;2023-02-15T11:55:42;9.60;97.00
10030;DHT22;5055;52.054;8.524;2023-02-15T11:58:21;9.50;97.00
10030;DHT22;5055;52.054;8.524;2023-02-15T12:00:53;9.60;97.00
10030;DHT22;5055;52.054;8.524;2023-02-15T12:03:29;9.60;97.00
10030;DHT22;5055;52.054;8.524;2023-02-15T12:06:04;9.80;97.00
10030;DHT22;5055;52.054;8.524;2023-02-15T12:08:37;9.90;97.00
10030;DHT22;5055;52.054;8.524;2023-02-15T12:11:09;10.00;97.00
10030;DHT22;5055;52.054;8.524;2023-02-15T12:13:54;10.00;97.00
10030;DHT22;5055;52.054;8.524;2023-02-15T12:16:23;9.90;97.00
10030;DHT22;5055;52.054;8.524;2023-02-15T12:18:53;10.00;97.00
10030;DHT22;5055;52.054;8.524;2023-02-15T12:21:29;9.90;97.00
10030;DHT22;5055;52.054;8.524;2023-02-15T12:24:03;9.90;97.00
10030;DHT22;5055;52.054;8.524;2023-02-15T12:26:37;10.10;97.00
10030;DHT22;5055;52.054;8.524;2023-02-15T12:29:12;10.20;97.00
10030;DHT22;5055;52.054;8.524;2023-02-15T12:31:45;10.20;97.00
10030;DHT22;5055;52.054;8.524;2023-02-15T12:34:21;10.40;97.00
10030;DHT22;5055;52.054;8.524;2023-02-15T12:36:53;10.60;97.00
10030;DHT22;5055;52.054;8.524;2023-02-15T12:39:26;11.00;97.00
10030;DHT22;5055;52.054;8.524;2023-02-15T12:42:01;11.40;97.00
10030;DHT22;5055;52.054;8.524;2023-02-15T12:44:31;11.70;97.00
10030;DHT22;5055;52.054;8.524;2023-02-15T12:47:02;12.10;97.00
10030;DHT22;5055;52.054;8.524;2023-02-15T12:49:32;12.50;97.00
10030;DHT22;5055;52.054;8.524;2023-02-15T12:52:04;12.50;97.00
10030;DHT22;5055;52.054;8.524;2023-02-15T12:54:39;12.50;97.00
10030;DHT22;5055;52.054;8.524;2023-02-15T12:57:29;12.70;97.00
10030;DHT22;5055;52.054;8.524;2023-02-15T12:59:59;13.20;97.00
10030;DHT22;5055;52.054;8.524;2023-02-15T13:02:31;13.70;97.00
10030;DHT22;5055;52.054;8.524;2023-02-15T13:05:17;14.10;97.00
10030;DHT22;5055;52.054;8.524;2023-02-15T13:07:49;14.60;97.00
10030;DHT22;5055;52.054;8.524;2023-02-15T13:10:27;15.00;97.00
10030;DHT22;5055;52.054;8.524;2023-02-15T13:12:56;15.20;97.00
10030;DHT22;5055;52.054;8.524;2023-02-15T13:15:28;15.70;97.00
10030;DHT22;5055;52.054;8.524;2023-02-15T13:17:59;15.90;97.00
10030;DHT22;5055;52.054;8.524;2023-02-15T13:20:29;15.90;97.00
10030;DHT22;5055;52.054;8.524;2023-02-15T13:23:02;16.00;97.00
10030;DHT22;5055;52.054;8.524;2023-02-15T13:25:43;16.30;97.00
10030;DHT22;5055;52.054;8.524;2023-02-15T13:28:19;16.40;97.00
10030;DHT22;5055;52.054;8.524;2023-02-15T13:30:50;16.70;97.00
10030;DHT22;5055;52.054;8.524;2023-02-15T13:33:23;16.40;97.00
10030;DHT22;5055;52.054;8.524;2023-02-15T13:36:02;16.90;97.00
10030;DHT22;5055;52.054;8.524;2023-02-15T13:38:46;16.90;97.00
10030;DHT22;5055;52.054;8.524;2023-02-15T13:41:21;17.20;97.00
10030;DHT22;5055;52.054;8.524;2023-02-15T13:43:57;17.40;97.00
10030;DHT22;5055;52.054;8.524;2023-02-15T13:46:53;17.50;97.00
10030;DHT22;5055;52.054;8.524;2023-02-15T13:49:39;17.50;97.00
10030;DHT22;5055;52.054;8.524;2023-02-15T13:52:18;17.30;97.00
10030;DHT22;5055;52.054;8.524;2023-02-15T13:55:03;17.60;97.00
10030;DHT22;5055;52.054;8.524;2023-02-15T13:57:44;18.20;97.00
10030;DHT22;5055;52.054;8.524;2023-02-15T14:00:19;18.10;97.00
10030;DHT22;5055;52.054;8.524;2023-02-15T14:03:17;17.50;97.00
10030;DHT22;5055;52.054;8.524;2023-02-15T14:09:02;16.70;97.00
10030;DHT22;5055;52.054;8.524;2023-02-15T14:11:41;16.60;97.00
10030;DHT22;5055;52.054;8.524;2023-02-15T14:14:28;17.00;97.00
10030;DHT22;5055;52.054;8.524;2023-02-15T14:17:03;17.50;97.00
10030;DHT22;5055;52.054;8.524;2023-02-15T14:19:40;17.70;97.00
10030;DHT22;5055;52.054;8.524;2023-02-15T14:22:18;17.70;97.00
10030;DHT22;5055;52.054;8.524;2023-02-15T14:24:59;18.00;97.00
10030;DHT22;5055;52.054;8.524;2023-02-15T14:27:43;18.10;97.00
10030;DHT22;5055;52.054;8.524;2023-02-15T14:30:18;18.10;97.00
10030;DHT22;5055;52.054;8.524;2023-02-15T14:32:50;18.40;97.00
10030;DHT22;5055;52.054;8.524;2023-02-15T14:35:21;18.90;97.00
10030;DHT22;5055;52.054;8.524;2023-02-15T14:37:54;19.20;97.00
10030;DHT22;5055;52.054;8.524;2023-02-15T14:40:32;19.20;97.00
10030;DHT22;5055;52.054;8.524;2023-02-15T14:43:27;19.00;97.00
10030;DHT22;5055;52.054;8.524;2023-02-15T14:46:01;19.00;97.00
10030;DHT22;5055;52.054;8.524;2023-02-15T14:48:35;18.90;97.00
10030;DHT22;5055;52.054;8.524;2023-02-15T14:51:05;18.90;97.00
10030;DHT22;5055;52.054;8.524;2023-02-15T14:53:38;18.80;97.00
10030;DHT22;5055;52.054;8.524;2023-02-15T14:56:18;18.80;97.00
10030;DHT22;5055;52.054;8.524;2023-02-15T14:59:12;18.60;97.00
10030;DHT22;5055;52.054;8.524;2023-02-15T15:01:41;18.30;97.00
10030;DHT22;5055;52.054;8.524;2023-02-15T15:04:12;18.00;97.00
10030;DHT22;5055;52.054;8.524;2023-02-15T15:06:42;17.60;97.00
10030;DHT22;5055;52.054;8.524;2023-02-15T15:09:13;17.30;97.00
10030;DHT22;5055;52.054;8.524;2023-02-15T15:11:47;17.10;97.00
10030;DHT22;5055;52.054;8.524;2023-02-15T15:14:41;16.70;97.00
10030;DHT22;5055;52.054;8.524;2023-02-15T15:17:11;16.40;97.00
10030;DHT22;5055;52.054;8.524;2023-02-15T15:20:10;15.90;97.00
10030;DHT22;5055;52.054;8.524;2023-02-15T15:22:41;15.40;97.00
10030;DHT22;5055;52.054;8.524;2023-02-15T15:25:12;15.00;97.00
10030;DHT22;5055;52.054;8.524;2023-02-15T15:28:00;14.70;97.00
10030;DHT22;5055;52.054;8.524;2023-02-15T15:31:03;14.20;97.00
10030;DHT22;5055;52.054;8.524;2023-02-15T15:37:06;13.70;97.00
10030;DHT22;5055;52.054;8.524;2023-02-15T15:42:54;13.10;97.00
10030;DHT22;5055;52.054;8.524;2023-02-15T15:45:49;12.70;97.00
10030;DHT22;5055;52.054;8.524;2023-02-15T15:48:33;12.50;97.00
10030;DHT22;5055;52.054;8.524;2023-02-15T15:51:10;12.30;97.00
10030;DHT22;5055;52.054;8.524;2023-02-15T15:53:42;12.10;97.00
10030;DHT22;5055;52.054;8.524;2023-02-15T15:56:17;12.00;97.00
10030;DHT22;5055;52.054;8.524;2023-02-15T15:58:49;11.80;97.00
10030;DHT22;5055;52.054;8.524;2023-02-15T16:01:25;11.70;97.00
10030;DHT22;5055;52.054;8.524;2023-02-15T16:03:57;11.60;97.00
10030;DHT22;5055;52.054;8.524;2023-02-15T16:06:27;11.50;97.00
10030;DHT22;5055;52.054;8.524;2023-02-15T16:08:56;11.40;97.00
10030;DHT22;5055;52.054;8.524;2023-02-15T16:11:29;11.30;97.00
10030;DHT22;5055;52.054;8.524;2023-02-15T16:14:00;11.30;97.00
10030;DHT22;5055;52.054;8.524;2023-02-15T16:16:29;11.10;97.00
10030;DHT22;5055;52.054;8.524;2023-02-15T16:19:00;11.00;97.00
10030;DHT22;5055;52.054;8.524;2023-02-15T16:21:31;10.80;97.00
10030;DHT22;5055;52.054;8.524;2023-02-15T16:30:21;10.30;97.00
10030;DHT22;5055;52.054;8.524;2023-02-15T16:32:54;10.10;97.00
10030;DHT22;5055;52.054;8.524;2023-02-15T16:35:24;10.00;97.00
10030;DHT22;5055;52.054;8.524;2023-02-15T16:37:52;9.90;97.00
10030;DHT22;5055;52.054;8.524;2023-02-15T16:40:40;9.80;97.00
10030;DHT22;5055;52.054;8.524;2023-02-15T16:43:16;9.60;97.00
10030;DHT22;5055;52.054;8.524;2023-02-15T16:45:46;9.40;97.00
10030;DHT22;5055;52.054;8.524;2023-02-15T16:48:19;9.40;97.00
10030;DHT22;5055;52.054;8.524;2023-02-15T16:50:53;9.20;97.00
10030;DHT22;5055;52.054;8.524;2023-02-15T16:53:25;9.00;97.00
10030;DHT22;5055;52.054;8.524;2023-02-15T16:55:55;8.90;97.00
10030;DHT22;5055;52.054;8.524;2023-02-15T16:58:28;8.80;97.00
10030;DHT22;5055;52.054;8.524;2023-02-15T17:00:59;8.70;97.00